Terminal Aerodrome Forecast
Issued by NWS

Home | Current Version | Previous Version | Text Only | Print | Product List | Glossary On
Versions: 1 2 3 4 5 6 7 8 9 10 11 12 13 14 15 16 17 18
889
FTUS44 KLZK 300529
TAFHOT
TAF
KHOT 300529Z 3006/0106 12009G18KT P6SM -RA BKN015 OVC040
      TEMPO 3006/3009 3SM -TSRA BR SCT005 OVC015CB
     FM300900 12009KT 4SM -TSRA BR OVC015CB
     FM301100 15005KT 2SM -TSRA BR OVC008CB
     FM301400 19010KT 6SM -RA BR BKN008 OVC015=

USA.gov is the U.S. government's official web portal to all federal, state and local government web resources and services.